Time;durP1;ratioP1;P1;durP2;ratioP2;P2;SDS_P1;SDS_P2;PMS_P1;PMS_P2;Temp;Humidity;BMP_temperature;BMP_pressure;BME280_temperature;BME280_humidity;BME280_pressure;Samples;Min_cycle;Max_cycle;Signal;HPM_P1;HPM_P2
2023/08/11 00:01:14;;;;;;;5.30;1.00;;;;;;;17.94;45.92;98258.59;10284668;28;20166;-73
2023/08/11 00:06:34;;;;;;;2.58;1.20;;;;;;;17.97;45.93;98256.63;10284327;28;20174;-73
2023/08/11 00:11:55;;;;;;;2.17;1.02;;;;;;;17.94;45.73;98252.94;10284021;28;20062;-73
2023/08/11 00:17:16;;;;;;;2.17;1.20;;;;;;;17.98;45.89;98250.34;10298436;28;20527;-73
2023/08/11 00:22:37;;;;;;;2.78;0.90;;;;;;;17.95;46.21;98251.63;10295946;28;20078;-73
2023/08/11 00:27:59;;;;;;;3.65;1.20;;;;;;;18.00;45.94;98250.41;10297147;28;20125;-73
2023/08/11 00:33:20;;;;;;;2.88;1.00;;;;;;;18.03;45.93;98259.72;10296920;28;20046;-73
2023/08/11 00:38:40;;;;;;;3.40;1.00;;;;;;;18.00;45.87;98261.00;10283127;28;20047;-73
2023/08/11 00:44:01;;;;;;;2.53;1.20;;;;;;;17.97;45.67;98254.53;10283039;28;20043;-74
2023/08/11 00:49:23;;;;;;;2.60;1.15;;;;;;;17.96;45.82;98260.81;10297078;28;20130;-73
2023/08/11 00:54:43;;;;;;;1.90;0.90;;;;;;;17.92;45.93;98264.16;10282715;28;20066;-73
2023/08/11 01:00:17;;;;;;;3.00;1.20;;;;;;;17.91;45.87;98259.88;10295520;28;20517;-73
2023/08/11 01:05:40;;;;;;;2.80;1.10;;;;;;;17.87;45.96;98264.63;10296640;28;20406;-73
2023/08/11 01:11:17;;;;;;;3.10;1.10;;;;;;;17.83;46.04;98255.94;10282222;28;20074;-73
2023/08/11 01:16:37;;;;;;;3.22;1.13;;;;;;;17.84;45.75;98255.31;10269549;28;20070;-74
2023/08/11 01:22:00;;;;;;;1.70;1.10;;;;;;;17.83;46.10;98251.03;10295026;28;20182;-73
2023/08/11 01:27:21;;;;;;;1.85;0.90;;;;;;;17.80;46.35;98254.41;10281364;28;20101;-73
2023/08/11 01:32:43;;;;;;;1.73;1.20;;;;;;;17.78;46.28;98262.78;10293929;28;20118;-73
2023/08/11 01:38:04;;;;;;;1.67;1.00;;;;;;;17.74;46.53;98258.38;10294462;28;20122;-74
2023/08/11 01:43:24;;;;;;;2.08;1.10;;;;;;;17.78;46.76;98268.41;10294105;28;20121;-73
2023/08/11 01:48:45;;;;;;;3.30;1.15;;;;;;;17.77;46.84;98262.03;10294131;28;20078;-73
2023/08/11 01:54:07;;;;;;;4.32;1.10;;;;;;;17.81;46.80;98267.88;10280273;28;20195;-73
2023/08/11 01:59:30;;;;;;;4.68;1.25;;;;;;;17.83;46.97;98267.22;10267193;28;20074;-73
2023/08/11 02:04:51;;;;;;;2.33;0.98;;;;;;;17.84;46.75;98271.50;10293342;28;20129;-73
2023/08/11 02:10:14;;;;;;;1.40;0.80;;;;;;;17.84;46.97;98269.41;10293393;28;20563;-73
2023/08/11 02:15:34;;;;;;;4.10;1.23;;;;;;;17.78;47.06;98263.50;10280319;28;20441;-73
2023/08/11 02:20:56;;;;;;;3.30;1.20;;;;;;;17.76;47.15;98265.47;10279435;28;20118;-73
2023/08/11 02:26:17;;;;;;;4.22;1.20;;;;;;;17.72;47.41;98266.03;10292843;28;20047;-73
2023/08/11 02:31:37;;;;;;;1.38;1.00;;;;;;;17.70;47.29;98269.50;10292647;28;20066;-73
2023/08/11 02:36:58;;;;;;;2.78;0.98;;;;;;;17.69;47.44;98270.09;10292578;28;20047;-73
2023/08/11 02:42:19;;;;;;;3.92;1.17;;;;;;;17.67;47.46;98275.66;10292168;28;20122;-73
2023/08/11 02:47:41;;;;;;;1.73;1.08;;;;;;;17.57;47.74;98283.63;10291656;28;20118;-73
2023/08/11 02:53:04;;;;;;;3.47;1.50;;;;;;;17.33;48.29;98278.25;10278909;28;20093;-73
2023/08/11 02:58:26;;;;;;;4.05;1.35;;;;;;;17.02;49.33;98292.19;10278507;28;20131;-73
2023/08/11 03:03:46;;;;;;;3.67;1.38;;;;;;;16.73;50.47;98293.53;10278412;28;20174;-73
2023/08/11 03:09:08;;;;;;;2.88;1.15;;;;;;;16.48;51.52;98297.13;10291916;28;20129;-73
2023/08/11 03:14:29;;;;;;;2.38;1.20;;;;;;;16.36;52.00;98292.94;10278681;28;20449;-72
2023/08/11 03:19:49;;;;;;;4.20;1.00;;;;;;;16.21;52.34;98295.00;10278063;28;20462;-72
2023/08/11 03:25:11;;;;;;;2.90;1.50;;;;;;;16.12;52.80;98290.28;10278217;28;20123;-72
2023/08/11 03:30:32;;;;;;;3.97;1.52;;;;;;;16.09;53.53;98299.94;10278565;28;20561;-72
2023/08/11 03:35:53;;;;;;;2.85;1.30;;;;;;;16.07;53.25;98304.75;10291457;28;20149;-72
2023/08/11 03:41:14;;;;;;;2.58;1.20;;;;;;;16.05;53.06;98301.81;10264917;28;20117;-73
2023/08/11 03:46:35;;;;;;;4.57;1.45;;;;;;;16.07;53.35;98305.47;10294100;28;20496;-72
2023/08/11 03:51:57;;;;;;;4.25;1.40;;;;;;;16.10;53.19;98309.88;10277921;28;20126;-72
2023/08/11 03:57:17;;;;;;;3.60;1.30;;;;;;;16.14;52.96;98315.00;10282182;28;20043;-72
2023/08/11 04:02:38;;;;;;;1.98;1.10;;;;;;;16.15;53.24;98316.47;10298024;28;20079;-72
2023/08/11 04:08:01;;;;;;;3.43;1.43;;;;;;;16.22;53.44;98318.25;10298089;28;20098;-73
2023/08/11 04:13:22;;;;;;;4.35;1.30;;;;;;;16.36;53.24;98319.03;10284367;28;20074;-73
2023/08/11 04:18:44;;;;;;;3.25;1.23;;;;;;;16.39;53.27;98323.41;10298628;28;20129;-72
2023/08/11 04:24:05;;;;;;;6.00;1.15;;;;;;;16.49;53.42;98338.03;10297195;28;20118;-73
2023/08/11 04:29:26;;;;;;;4.32;1.35;;;;;;;16.52;53.30;98331.16;10297388;28;20397;-73
2023/08/11 04:34:47;;;;;;;3.30;1.42;;;;;;;16.63;53.26;98340.91;10296852;28;20089;-72
2023/08/11 04:40:11;;;;;;;2.33;1.50;;;;;;;16.72;53.47;98354.09;10296895;28;20146;-73
2023/08/11 04:45:34;;;;;;;2.60;1.30;;;;;;;16.82;53.35;98354.63;10283419;28;20468;-73
2023/08/11 04:50:56;;;;;;;3.20;1.67;;;;;;;17.01;54.01;98355.59;10282784;28;20174;-73
2023/08/11 04:56:17;;;;;;;3.53;1.38;;;;;;;17.24;53.30;98360.28;10296016;28;20204;-75
2023/08/11 05:01:38;;;;;;;1.95;1.20;;;;;;;17.43;53.02;98360.56;10296747;28;20126;-74
2023/08/11 05:06:59;;;;;;;3.45;1.40;;;;;;;17.65;52.86;98358.13;10294726;28;20047;-75
2023/08/11 05:12:20;;;;;;;2.15;1.30;;;;;;;17.86;52.68;98359.91;10281679;28;20144;-73
2023/08/11 05:17:41;;;;;;;2.42;1.42;;;;;;;18.08;52.36;98357.41;10294953;28;20039;-73
2023/08/11 05:23:03;;;;;;;3.28;1.50;;;;;;;18.37;52.15;98365.13;10281618;28;20051;-73
2023/08/11 05:28:24;;;;;;;3.70;1.20;;;;;;;18.58;51.80;98372.47;10268042;28;20590;-73
2023/08/11 05:33:45;;;;;;;1.83;1.02;;;;;;;18.65;51.29;98376.31;10295255;28;20121;-74
2023/08/11 05:39:08;;;;;;;1.98;1.00;;;;;;;18.67;50.78;98379.25;10294054;28;20129;-72
2023/08/11 05:44:29;;;;;;;3.73;1.20;;;;;;;18.56;50.93;98378.75;10294997;28;20122;-72
2023/08/11 05:49:51;;;;;;;2.92;1.00;;;;;;;18.66;50.78;98381.34;10280264;28;20287;-72
2023/08/11 05:55:12;;;;;;;3.70;1.25;;;;;;;18.68;50.49;98386.34;10280429;28;20097;-72
2023/08/11 06:00:32;;;;;;;4.50;1.20;;;;;;;18.96;50.35;98379.16;10293738;28;20129;-72
2023/08/11 06:05:53;;;;;;;4.40;1.27;;;;;;;19.36;50.12;98387.97;10279407;28;20078;-72
2023/08/11 06:11:14;;;;;;;3.10;1.20;;;;;;;19.72;49.43;98394.47;10279573;28;20150;-72
2023/08/11 06:16:35;;;;;;;4.25;1.20;;;;;;;19.92;48.65;98394.59;10292949;28;20074;-72
2023/08/11 06:21:55;;;;;;;1.83;1.15;;;;;;;20.20;48.50;98398.56;10292650;28;20185;-72
2023/08/11 06:27:17;;;;;;;4.85;1.20;;;;;;;20.73;47.58;98397.81;10265961;28;20049;-72
2023/08/11 06:32:38;;;;;;;4.32;1.35;;;;;;;21.46;45.98;98396.22;10279286;28;20607;-73
2023/08/11 06:37:59;;;;;;;3.60;1.27;;;;;;;22.03;45.15;98401.72;10279341;28;20191;-73
2023/08/11 06:43:20;;;;;;;4.95;1.00;;;;;;;22.43;44.60;98410.09;10292358;28;20167;-73
2023/08/11 06:48:41;;;;;;;2.47;1.17;;;;;;;23.21;43.14;98413.88;10292564;28;20458;-73
2023/08/11 06:54:02;;;;;;;3.60;1.10;;;;;;;23.06;42.53;98423.41;10292142;28;20049;-72
2023/08/11 06:59:23;;;;;;;3.55;1.15;;;;;;;23.89;41.87;98425.00;10278985;28;20332;-73
2023/08/11 07:04:44;;;;;;;2.83;0.93;;;;;;;27.76;41.74;98434.94;10278383;28;20193;-76
2023/08/11 07:10:06;;;;;;;2.35;0.93;;;;;;;37.44;29.88;98436.22;10292325;28;20122;-75
2023/08/11 07:15:27;;;;;;;1.85;0.73;;;;;;;41.41;21.52;98436.00;10278458;28;20127;-74
2023/08/11 07:20:48;;;;;;;1.65;0.73;;;;;;;45.72;16.72;98431.50;10291710;28;20062;-76
2023/08/11 07:26:11;;;;;;;2.90;1.00;;;;;;;43.20;15.96;98432.97;10278622;28;20039;-75
2023/08/11 07:31:31;;;;;;;1.98;0.77;;;;;;;43.74;15.34;98436.72;10281083;28;20081;-75
2023/08/11 07:36:52;;;;;;;1.17;0.60;;;;;;;41.43;15.72;98427.13;10285670;28;20049;-75
2023/08/11 07:42:13;;;;;;;3.00;0.80;;;;;;;43.49;15.22;98431.47;10298752;28;20047;-77
2023/08/11 07:47:34;;;;;;;1.40;0.70;;;;;;;47.34;13.09;98428.66;10298672;28;20047;-78
2023/08/11 07:52:55;;;;;;;4.45;0.70;;;;;;;48.48;11.29;98431.41;10284827;28;20074;-77
2023/08/11 07:58:16;;;;;;;2.33;0.65;;;;;;;46.06;11.70;98429.25;10284575;28;20043;-78
2023/08/11 08:03:38;;;;;;;1.75;0.70;;;;;;;45.49;12.13;98432.91;10284482;28;20046;-78
2023/08/11 08:08:59;;;;;;;1.08;0.77;;;;;;;45.55;11.90;98437.69;10271073;28;20042;-77
2023/08/11 08:14:20;;;;;;;1.58;0.40;;;;;;;51.15;10.08;98428.13;10283859;28;20047;-79
2023/08/11 08:19:41;;;;;;;2.10;0.70;;;;;;;53.57;7.39;98425.78;10297354;28;20069;-79
2023/08/11 08:25:06;;;;;;;1.63;0.50;;;;;;;54.82;6.50;98421.38;10283833;28;20054;-79
2023/08/11 08:30:27;;;;;;;2.08;0.60;;;;;;;55.55;5.41;98415.94;10284452;28;20093;-79
2023/08/11 08:35:48;;;;;;;1.55;0.40;;;;;;;56.20;4.95;98411.88;10283121;28;20122;-78
2023/08/11 08:41:09;;;;;;;0.55;0.32;;;;;;;57.48;4.64;98405.06;10295915;28;20497;-78
2023/08/11 08:46:30;;;;;;;1.42;0.45;;;;;;;56.59;4.86;98407.59;10283040;28;20046;-79
2023/08/11 08:51:53;;;;;;;2.13;0.40;;;;;;;55.02;5.59;98415.56;10283180;28;20047;-79
2023/08/11 08:57:15;;;;;;;2.65;0.50;;;;;;;53.69;5.56;98419.34;10269203;28;20047;-78
2023/08/11 09:02:38;;;;;;;2.05;0.50;;;;;;;52.26;5.94;98411.41;10282588;28;20051;-79
2023/08/11 09:07:59;;;;;;;1.98;0.38;;;;;;;52.01;6.27;98398.06;10282231;28;20448;-78
2023/08/11 09:13:21;;;;;;;1.13;0.45;;;;;;;53.25;6.59;98409.50;10295151;28;20074;-77
2023/08/11 09:18:43;;;;;;;2.03;0.40;;;;;;;55.31;5.43;98400.59;10281860;28;20046;-79
2023/08/11 09:24:04;;;;;;;3.80;0.57;;;;;;;55.61;4.80;98399.63;10268105;28;20121;-78
2023/08/11 09:29:25;;;;;;;2.65;0.40;;;;;;;51.80;5.59;98401.50;10268150;28;20047;-77
2023/08/11 09:34:46;;;;;;;1.27;0.60;;;;;;;47.15;8.60;98402.63;10281100;28;20046;-79
2023/08/11 09:40:08;;;;;;;1.08;0.40;;;;;;;49.33;7.45;98401.03;10294279;28;20428;-78
2023/08/11 09:45:30;;;;;;;0.98;0.50;;;;;;;53.02;6.40;98395.34;10293970;28;20540;-79
2023/08/11 09:50:51;;;;;;;1.77;0.50;;;;;;;55.71;4.50;98394.88;10280489;28;20492;-79
2023/08/11 09:56:12;;;;;;;1.20;0.50;;;;;;;55.35;4.81;98382.22;10280237;28;20046;-79
2023/08/11 10:01:34;;;;;;;2.25;0.50;;;;;;;55.42;4.90;98383.66;10266638;28;20089;-79
2023/08/11 10:06:57;;;;;;;1.08;0.50;;;;;;;54.58;5.22;98379.75;10266609;28;20416;-78
2023/08/11 10:12:18;;;;;;;1.45;0.77;;;;;;;53.31;5.02;98375.41;10266368;28;20116;-78
2023/08/11 10:17:39;;;;;;;1.02;0.70;;;;;;;53.33;5.45;98366.94;10279496;28;20047;-78
2023/08/11 10:23:01;;;;;;;2.92;0.60;;;;;;;54.83;4.59;98371.25;10266097;28;20464;-78
2023/08/11 10:28:22;;;;;;;1.27;0.60;;;;;;;54.31;4.38;98363.84;10266011;28;20093;-78
2023/08/11 10:33:51;;;;;;;2.40;0.68;;;;;;;51.63;5.45;98348.03;10278912;28;20042;-77
2023/08/11 10:39:16;;;;;;;3.17;0.50;;;;;;;51.30;6.49;98359.19;10278970;28;20051;-77
2023/08/11 10:44:44;;;;;;;3.30;0.80;;;;;;;51.47;5.85;98359.16;10265801;28;20046;-78
2023/08/11 10:50:13;;;;;;;1.95;0.60;;;;;;;50.38;6.13;98364.19;10278890;28;20050;-78
2023/08/11 10:55:35;;;;;;;3.17;0.73;;;;;;;48.33;7.63;98349.59;10278389;28;20117;-77
2023/08/11 11:00:57;;;;;;;3.92;0.70;;;;;;;45.88;9.15;98344.91;10278416;28;20133;-77
2023/08/11 11:06:21;;;;;;;2.05;0.60;;;;;;;43.74;10.71;98337.50;10281344;28;20397;-77
2023/08/11 11:11:43;;;;;;;3.95;0.93;;;;;;;39.88;13.31;98333.66;10286569;28;20050;-77
2023/08/11 11:17:06;;;;;;;4.97;0.80;;;;;;;37.97;15.24;98338.50;10286606;28;20054;-78
2023/08/11 11:22:27;;;;;;;1.50;0.60;;;;;;;36.93;16.83;98332.94;10299266;28;20046;-77
2023/08/11 11:27:48;;;;;;;3.63;0.90;;;;;;;35.11;18.84;98333.09;10285927;28;20370;-77
2023/08/11 11:33:12;;;;;;;3.28;0.93;;;;;;;34.81;19.60;98343.13;10298826;28;20512;-77
2023/08/11 11:38:34;;;;;;;1.40;0.68;;;;;;;34.21;19.63;98346.38;10286123;28;20042;-77
2023/08/11 11:43:55;;;;;;;;;;;;;;;33.93;20.48;98349.78;10272175;28;20121;-77
2023/08/11 11:49:16;;;;;;;2.35;0.88;;;;;;;33.90;20.36;98340.41;10298308;28;20308;-77
2023/08/11 11:54:53;;;;;;;1.85;0.70;;;;;;;34.07;20.66;98340.84;10298294;28;20047;-76
2023/08/11 12:00:18;;;;;;;3.40;0.70;;;;;;;33.20;21.50;98340.69;10284624;28;20519;-76
2023/08/11 12:05:39;;;;;;;2.22;0.82;;;;;;;32.57;22.00;98338.53;10284842;28;20043;-77
2023/08/11 12:11:01;;;;;;;;;;;;;;;31.80;22.76;98353.66;10284503;28;20066;-77
2023/08/11 12:16:22;;;;;;;1.50;0.80;;;;;;;31.39;23.34;98351.03;10310795;28;19950;-74
2023/08/11 12:21:43;;;;;;;4.13;1.00;;;;;;;31.95;23.63;98349.22;10297585;28;20046;-76
2023/08/11 12:27:05;;;;;;;2.35;0.90;;;;;;;32.34;22.82;98358.28;10297219;28;20046;-76
2023/08/11 12:32:28;;;;;;;2.28;0.88;;;;;;;32.18;22.84;98343.97;10284004;28;20043;-76
2023/08/11 12:37:49;;;;;;;1.83;0.80;;;;;;;31.58;23.72;98337.22;10296850;28;20061;-76
2023/08/11 12:43:10;;;;;;;2.60;1.10;;;;;;;31.75;23.46;98337.78;10269944;28;20114;-76
2023/08/11 12:48:34;;;;;;;3.38;0.98;;;;;;;32.06;23.77;98344.78;10296429;28;20047;-76
2023/08/11 12:53:54;;;;;;;1.67;0.90;;;;;;;32.09;23.64;98340.44;10282827;28;20401;-77
2023/08/11 12:59:15;;;;;;;1.83;0.95;;;;;;;31.44;24.30;98348.81;10282375;28;20054;-76
2023/08/11 13:04:38;;;;;;;2.60;0.90;;;;;;;31.56;23.82;98340.13;10295632;28;20413;-76
2023/08/11 13:09:59;;;;;;;2.63;1.17;;;;;;;30.98;25.01;98336.81;10282144;28;20504;-76
2023/08/11 13:15:21;;;;;;;2.50;1.10;;;;;;;30.73;25.52;98344.81;10281933;28;20043;-76
2023/08/11 13:20:42;;;;;;;2.28;0.82;;;;;;;30.77;25.37;98330.38;10295198;28;20456;-77
2023/08/11 13:26:03;;;;;;;3.08;1.02;;;;;;;30.87;25.16;98329.63;10268160;28;20058;-76
2023/08/11 13:31:24;;;;;;;1.85;0.90;;;;;;;30.83;25.78;98328.94;10280725;28;20054;-74
2023/08/11 13:36:45;;;;;;;2.00;0.90;;;;;;;30.92;25.80;98315.94;10281056;28;20039;-74
2023/08/11 13:42:07;;;;;;;3.33;0.87;;;;;;;30.89;25.78;98321.00;10280849;28;20062;-74
2023/08/11 13:47:28;;;;;;;1.83;0.80;;;;;;;30.82;25.33;98316.69;10294316;28;20045;-74
2023/08/11 13:52:49;;;;;;;1.87;1.10;;;;;;;31.03;25.74;98312.25;10293900;28;20101;-74
2023/08/11 13:58:11;;;;;;;2.15;1.05;;;;;;;31.09;25.45;98320.19;10280083;28;20047;-74
2023/08/11 14:03:32;;;;;;;;;;;;;;;30.45;25.88;98316.06;10280489;28;20053;-74
2023/08/11 14:08:53;;;;;;;2.58;1.00;;;;;;;30.24;26.44;98309.66;10293396;28;19954;-73
2023/08/11 14:14:14;;;;;;;1.50;0.80;;;;;;;30.41;26.48;98305.28;10293236;28;20038;-74
2023/08/11 14:19:35;;;;;;;3.97;1.00;;;;;;;30.55;26.09;98295.16;10279560;28;20079;-74
2023/08/11 14:24:56;;;;;;;2.17;0.98;;;;;;;30.45;25.98;98302.38;10266050;28;20395;-74
2023/08/11 14:30:17;;;;;;;2.58;1.08;;;;;;;30.11;26.45;98299.56;10279357;28;20042;-74
2023/08/11 14:35:40;;;;;;;3.13;1.07;;;;;;;29.57;27.05;98293.09;10279052;28;20047;-74
2023/08/11 14:41:02;;;;;;;2.40;1.00;;;;;;;29.35;27.23;98302.41;10279376;28;20042;-74
2023/08/11 14:46:23;;;;;;;1.83;0.93;;;;;;;29.34;27.94;98303.13;10292411;28;20490;-74
2023/08/11 14:51:44;;;;;;;4.25;0.90;;;;;;;29.40;28.17;98291.63;10293172;28;20053;-74
2023/08/11 14:57:06;;;;;;;1.67;0.75;;;;;;;29.21;28.30;98299.50;10278511;28;20038;-74
2023/08/11 15:02:27;;;;;;;1.75;1.00;;;;;;;29.16;28.67;98300.22;10291881;28;20062;-75
2023/08/11 15:07:48;;;;;;;3.45;0.70;;;;;;;29.32;28.57;98303.09;10278327;28;20488;-74
2023/08/11 15:13:09;;;;;;;2.37;1.13;;;;;;;29.16;28.44;98295.19;10291973;28;20050;-74
2023/08/11 15:18:31;;;;;;;4.03;1.10;;;;;;;28.99;29.04;98287.94;10291762;28;20043;-73
2023/08/11 15:23:52;;;;;;;3.72;1.30;;;;;;;28.78;29.13;98290.00;10278624;28;20493;-74
2023/08/11 15:29:13;;;;;;;5.47;1.13;;;;;;;28.44;29.88;98282.69;10278582;28;20043;-74
2023/08/11 15:34:34;;;;;;;5.47;1.10;;;;;;;28.19;30.35;98278.94;10278117;28;20043;-74
2023/08/11 15:39:55;;;;;;;2.80;1.20;;;;;;;28.13;30.33;98278.16;10278609;28;20045;-74
2023/08/11 15:45:16;;;;;;;6.25;1.20;;;;;;;27.99;30.41;98273.06;10291601;28;20044;-74
2023/08/11 15:50:37;;;;;;;1.52;1.10;;;;;;;28.05;30.54;98278.13;10278534;28;20098;-74
2023/08/11 15:55:58;;;;;;;3.22;1.13;;;;;;;27.94;30.87;98278.06;10285301;28;20058;-74
2023/08/11 16:01:18;;;;;;;5.05;1.10;;;;;;;27.81;30.65;98270.06;10285247;28;20122;-74
2023/08/11 16:06:40;;;;;;;2.67;1.05;;;;;;;27.68;30.93;98269.25;10299697;28;20394;-74
2023/08/11 16:12:01;;;;;;;5.45;1.10;;;;;;;27.53;31.20;98270.53;10284851;28;20508;-74
2023/08/11 16:17:22;;;;;;;2.40;1.00;;;;;;;27.46;31.59;98266.88;10284816;28;20043;-74
2023/08/11 16:22:42;;;;;;;2.13;1.00;;;;;;;27.34;31.83;98272.53;10284332;28;20077;-74
2023/08/11 16:28:04;;;;;;;2.33;1.00;;;;;;;27.29;31.94;98268.16;10284313;28;20050;-74
2023/08/11 16:33:25;;;;;;;2.13;1.10;;;;;;;27.25;32.04;98273.88;10298414;28;20039;-74
2023/08/11 16:38:46;;;;;;;2.67;0.98;;;;;;;27.19;32.00;98276.66;10297530;28;20078;-74
2023/08/11 16:44:08;;;;;;;2.53;1.02;;;;;;;27.09;32.24;98272.25;10283651;28;20057;-74
2023/08/11 16:49:29;;;;;;;;;;;;;;;27.01;32.57;98277.88;10283659;28;20050;-74
2023/08/11 16:54:50;;;;;;;1.65;1.00;;;;;;;26.92;32.57;98276.34;10297747;28;19929;-73
2023/08/11 17:00:12;;;;;;;2.78;0.93;;;;;;;26.85;32.54;98256.94;10282840;28;20058;-74
2023/08/11 17:05:34;;;;;;;1.90;1.08;;;;;;;26.77;32.81;98271.91;10295253;28;20390;-74
2023/08/11 17:10:55;;;;;;;7.22;1.20;;;;;;;26.61;33.15;98260.97;10297050;28;20054;-74
2023/08/11 17:16:16;;;;;;;1.65;1.00;;;;;;;26.55;33.01;98274.50;10282363;28;20047;-73
2023/08/11 17:21:38;;;;;;;3.03;1.10;;;;;;;26.42;33.61;98268.59;10282186;28;20477;-73
2023/08/11 17:26:59;;;;;;;2.35;1.00;;;;;;;26.33;33.76;98266.28;10268866;28;20507;-74
2023/08/11 17:32:20;;;;;;;5.28;1.30;;;;;;;26.24;33.48;98265.47;10295373;28;20477;-74
2023/08/11 17:37:41;;;;;;;6.50;1.25;;;;;;;26.05;33.79;98260.91;10281456;28;20049;-74
2023/08/11 17:43:02;;;;;;;5.57;1.33;;;;;;;25.86;34.29;98257.75;10268137;28;20042;-74
2023/08/11 17:48:23;;;;;;;2.75;1.50;;;;;;;25.75;34.51;98264.03;10281215;28;20047;-74
2023/08/11 17:53:44;;;;;;;3.90;1.10;;;;;;;25.62;35.00;98271.66;10281040;28;20409;-74
2023/08/11 17:59:25;;;;;;;3.42;1.60;;;;;;;25.33;35.90;98276.91;10295187;28;20082;-74
2023/08/11 18:04:46;;;;;;;4.72;1.63;;;;;;;25.05;36.20;98279.97;10280193;28;20390;-74
2023/08/11 18:10:08;;;;;;;4.88;1.30;;;;;;;24.86;36.59;98280.28;10280467;28;20073;-74
2023/08/11 18:15:29;;;;;;;6.65;1.60;;;;;;;24.62;37.42;98275.53;10280108;28;20067;-74
2023/08/11 18:20:50;;;;;;;6.40;1.95;;;;;;;24.38;38.07;98280.72;10293694;28;20066;-74
2023/08/11 18:26:10;;;;;;;4.13;1.90;;;;;;;24.21;39.09;98294.59;10280076;28;20482;-74
2023/08/11 18:31:31;;;;;;;7.20;2.22;;;;;;;24.03;39.75;98305.59;10294178;28;20106;-74
2023/08/11 18:36:52;;;;;;;27.20;8.18;;;;;;;23.84;39.51;98307.31;10293211;28;20130;-74
2023/08/11 18:42:13;;;;;;;6.95;1.98;;;;;;;23.64;40.16;98301.84;10292952;28;20170;-74
2023/08/11 18:47:33;;;;;;;4.28;2.00;;;;;;;23.51;40.37;98313.56;10279519;28;20141;-74
2023/08/11 18:52:54;;;;;;;14.20;4.75;;;;;;;23.35;40.41;98314.56;10293847;28;20178;-74
2023/08/11 18:58:15;;;;;;;8.10;3.00;;;;;;;23.24;41.11;98315.72;10279136;28;20498;-73
2023/08/11 19:03:36;;;;;;;8.35;2.50;;;;;;;23.13;41.78;98328.22;10278996;28;20544;-74
2023/08/11 19:08:57;;;;;;;11.85;3.83;;;;;;;23.02;41.71;98323.66;10292494;28;20118;-74
2023/08/11 19:14:17;;;;;;;11.70;2.47;;;;;;;23.00;42.50;98321.47;10279152;28;20074;-74
2023/08/11 19:19:40;;;;;;;8.90;3.13;;;;;;;22.92;42.31;98312.00;10292236;28;20137;-73
2023/08/11 19:25:01;;;;;;;5.93;2.40;;;;;;;22.85;42.93;98311.09;10278730;28;20146;-73
2023/08/11 19:30:22;;;;;;;7.03;2.50;;;;;;;22.74;42.92;98312.16;10301068;28;20074;-73
2023/08/11 19:35:43;;;;;;;8.05;2.47;;;;;;;22.67;44.11;98304.84;10299700;28;20051;-74
2023/08/11 19:41:04;;;;;;;8.77;2.65;;;;;;;22.60;43.65;98300.41;10299579;28;20039;-74
2023/08/11 19:46:24;;;;;;;11.07;2.70;;;;;;;22.52;43.68;98293.06;10299414;28;20077;-74
2023/08/11 19:51:45;;;;;;;6.35;2.38;;;;;;;22.45;44.08;98288.59;10299416;28;20444;-73
2023/08/11 19:57:06;;;;;;;5.15;2.05;;;;;;;22.32;44.69;98295.31;10299019;28;20074;-74
2023/08/11 20:02:26;;;;;;;6.57;2.50;;;;;;;22.28;45.20;98289.50;10298817;28;20142;-73
2023/08/11 20:07:48;;;;;;;3.67;2.30;;;;;;;22.17;45.51;98279.22;10285154;28;20070;-74
2023/08/11 20:13:09;;;;;;;5.82;2.00;;;;;;;22.11;45.44;98287.56;10284830;28;20122;-73
2023/08/11 20:18:30;;;;;;;6.97;2.40;;;;;;;22.02;46.49;98274.47;10284395;28;20067;-74
2023/08/11 20:23:51;;;;;;;8.20;2.53;;;;;;;21.91;46.71;98277.00;10297997;28;20066;-73
2023/08/11 20:29:12;;;;;;;7.00;2.35;;;;;;;21.83;46.72;98270.34;10298685;28;20049;-73
2023/08/11 20:34:32;;;;;;;3.92;2.28;;;;;;;21.73;47.18;98270.75;10297610;28;20117;-73
2023/08/11 20:39:53;;;;;;;5.68;3.33;;;;;;;21.65;47.74;98279.00;10297374;28;20074;-73
2023/08/11 20:45:14;;;;;;;7.55;2.33;;;;;;;21.57;47.47;98275.88;10297212;28;20070;-73
2023/08/11 20:50:35;;;;;;;9.30;2.50;;;;;;;21.52;48.02;98279.97;10297176;28;20043;-73
2023/08/11 20:55:59;;;;;;;6.50;2.35;;;;;;;21.47;48.08;98269.88;10296798;28;20485;-74
2023/08/11 21:01:21;;;;;;;5.00;2.13;;;;;;;21.36;48.12;98280.91;10283078;28;20085;-74
2023/08/11 21:06:42;;;;;;;5.03;2.38;;;;;;;21.33;48.52;98270.13;10283073;28;20101;-73
2023/08/11 21:12:02;;;;;;;8.18;2.20;;;;;;;21.22;49.19;98279.66;10282717;28;20062;-73
2023/08/11 21:17:23;;;;;;;4.13;1.92;;;;;;;21.12;49.05;98271.50;10297165;28;20379;-73
2023/08/11 21:22:45;;;;;;;7.45;1.92;;;;;;;21.04;49.58;98282.59;10282352;28;20409;-73
2023/08/11 21:28:06;;;;;;;3.63;2.08;;;;;;;20.98;49.69;98273.88;10282345;28;20074;-74
2023/08/11 21:33:27;;;;;;;4.32;1.85;;;;;;;20.84;49.47;98272.00;10295309;28;20121;-73
2023/08/11 21:38:48;;;;;;;5.35;2.08;;;;;;;20.76;49.89;98280.22;10281777;28;20486;-74
2023/08/11 21:44:08;;;;;;;7.07;2.30;;;;;;;20.66;49.98;98291.19;10295744;28;20051;-73
2023/08/11 21:49:29;;;;;;;5.90;2.40;;;;;;;20.53;50.62;98286.44;10280818;28;20525;-73
2023/08/11 21:54:50;;;;;;;8.25;2.33;;;;;;;20.44;50.76;98290.34;10294705;28;20122;-73
2023/08/11 22:00:13;;;;;;;6.25;2.17;;;;;;;20.43;51.11;98286.06;10294653;28;20520;-73
2023/08/11 22:05:34;;;;;;;4.05;2.33;;;;;;;20.43;50.95;98288.91;10293994;28;20067;-73
2023/08/11 22:10:55;;;;;;;6.25;2.17;;;;;;;20.44;51.26;98293.19;10293897;28;20134;-73
2023/08/11 22:16:15;;;;;;;3.92;2.03;;;;;;;20.44;51.37;98293.91;10293870;28;20138;-73
2023/08/11 22:21:36;;;;;;;7.13;2.55;;;;;;;20.41;51.52;98294.47;10293621;28;20559;-74
2023/08/11 22:26:57;;;;;;;3.50;2.20;;;;;;;20.38;51.60;98293.69;10293634;28;20119;-74
2023/08/11 22:32:21;;;;;;;6.85;2.15;;;;;;;20.36;51.89;98284.34;10293498;28;20174;-73
2023/08/11 22:37:41;;;;;;;;;;;;;;;20.34;53.16;98293.50;10280480;28;20070;-73
2023/08/11 22:43:02;;;;;;;3.95;1.90;;;;;;;20.35;52.49;98282.91;10294276;28;20333;-73
2023/08/11 22:48:22;;;;;;;9.32;2.38;;;;;;;20.33;52.35;98291.34;10293022;28;20525;-73
2023/08/11 22:53:43;;;;;;;4.00;1.70;;;;;;;20.29;52.00;98289.81;10293059;28;20082;-73
2023/08/11 22:59:04;;;;;;;6.00;1.98;;;;;;;20.25;52.69;98283.25;10293507;28;20552;-73
2023/08/11 23:04:25;;;;;;;4.35;1.80;;;;;;;20.20;52.72;98276.69;10299490;28;20580;-73
2023/08/11 23:09:47;;;;;;;4.97;1.50;;;;;;;20.19;52.92;98280.19;10287874;28;20558;-73
2023/08/11 23:15:08;;;;;;;5.28;1.92;;;;;;;20.11;53.05;98274.94;10300716;28;20459;-74
2023/08/11 23:20:29;;;;;;;4.38;1.83;;;;;;;20.07;53.32;98269.09;10300610;28;20082;-73
2023/08/11 23:25:50;;;;;;;5.85;1.98;;;;;;;20.03;53.45;98274.63;10300186;28;20066;-73
2023/08/11 23:31:11;;;;;;;8.77;2.25;;;;;;;19.96;53.60;98264.41;10300096;28;20408;-73
2023/08/11 23:36:31;;;;;;;3.33;1.92;;;;;;;19.92;53.55;98265.00;10299741;28;20077;-73
2023/08/11 23:41:52;;;;;;;5.15;1.90;;;;;;;19.88;54.38;98272.59;10299843;28;20069;-73
2023/08/11 23:47:14;;;;;;;3.35;1.98;;;;;;;19.81;54.21;98262.44;10285862;28;20469;-73
2023/08/11 23:52:35;;;;;;;2.95;2.00;;;;;;;19.77;54.40;98270.75;10285895;28;20118;-73
2023/08/11 23:57:56;;;;;;;2.95;1.98;;;;;;;19.70;54.72;98270.53;10299259;28;20081;-73
